createdAt,value
2023-01-07T00:00:58.295Z,1.6
2023-01-07T00:02:06.979Z,1.7
2023-01-07T00:03:16.696Z,1.9
2023-01-07T00:04:26.383Z,1.7
2023-01-07T00:05:35.024Z,2.3
2023-01-07T00:06:44.693Z,1.7
2023-01-07T00:07:54.416Z,1.6
2023-01-07T00:09:03.129Z,2.5
2023-01-07T00:10:11.812Z,1.8
2023-01-07T00:11:20.477Z,1.4
2023-01-07T00:12:29.167Z,1.5
2023-01-07T00:13:38.865Z,1.8
2023-01-07T00:14:48.548Z,2
2023-01-07T00:15:58.242Z,2.3
2023-01-07T00:17:07.904Z,2.3
2023-01-07T00:18:15.557Z,2.4
2023-01-07T00:19:25.266Z,2.3
2023-01-07T00:20:34.930Z,2.7
2023-01-07T00:21:44.599Z,2.6
2023-01-07T00:22:54.274Z,2
2023-01-07T00:24:05.085Z,2.7
2023-01-07T00:25:14.660Z,1.9
2023-01-07T00:26:23.340Z,2.2
2023-01-07T00:27:32.071Z,1.8
2023-01-07T00:28:41.741Z,1.8
2023-01-07T00:29:49.397Z,1.9
2023-01-07T00:30:59.147Z,2.3
2023-01-07T00:32:07.805Z,2.2
2023-01-07T00:33:17.468Z,1.9
2023-01-07T00:34:27.142Z,1.9
2023-01-07T00:35:35.804Z,1.8
2023-01-07T00:36:43.566Z,2.2
2023-01-07T00:37:53.233Z,1.5
2023-01-07T00:39:00.894Z,1.4
2023-01-07T00:40:10.651Z,1.7
2023-01-07T00:41:20.224Z,2.2
2023-01-07T00:42:28.931Z,1.9
2023-01-07T00:43:38.631Z,1.7
2023-01-07T00:44:47.301Z,1.6
2023-01-07T00:45:55.970Z,1.7
2023-01-07T00:47:04.660Z,1.6
2023-01-07T00:48:13.358Z,1.4
2023-01-07T00:49:23.018Z,1.9
2023-01-07T00:50:31.739Z,1.9
2023-01-07T00:51:39.501Z,1.8
2023-01-07T00:52:49.186Z,1.8
2023-01-07T00:53:58.897Z,1.8
2023-01-07T00:55:08.583Z,1.7
2023-01-07T00:56:16.373Z,1.7
2023-01-07T00:57:25.947Z,2.1
2023-01-07T00:58:35.633Z,1.4
2023-01-07T00:59:45.334Z,2
2023-01-07T01:00:55.114Z,1.8
2023-01-07T01:02:04.812Z,1.7
2023-01-07T01:03:14.352Z,1.8
2023-01-07T01:04:23.023Z,1.4
2023-01-07T01:05:31.745Z,1.6
2023-01-07T01:06:40.414Z,1.6
2023-01-07T01:07:50.084Z,1.6
2023-01-07T01:08:58.759Z,2.3
2023-01-07T01:10:06.443Z,1.3
2023-01-07T01:11:16.154Z,1.5
2023-01-07T01:12:25.958Z,1.6
2023-01-07T01:13:35.529Z,1.5
2023-01-07T01:14:44.269Z,1.8
2023-01-07T01:15:51.972Z,1.7
2023-01-07T01:17:01.638Z,1.7
2023-01-07T01:18:10.284Z,1.7
2023-01-07T01:19:19.969Z,2.5
2023-01-07T01:20:29.630Z,2.2
2023-01-07T01:21:38.289Z,2.3
2023-01-07T01:22:46.975Z,1.7
2023-01-07T01:23:55.648Z,1.8
2023-01-07T01:25:05.337Z,2.6
2023-01-07T01:26:15.028Z,2
2023-01-07T01:27:23.686Z,1.8
2023-01-07T01:28:32.514Z,1.9
2023-01-07T01:29:42.072Z,1.8
2023-01-07T01:30:50.731Z,1.9
2023-01-07T01:31:59.395Z,1.6
2023-01-07T01:33:09.086Z,2.8
2023-01-07T01:34:17.780Z,1.7
2023-01-07T01:35:27.457Z,1.8
2023-01-07T01:36:36.120Z,2.5
2023-01-07T01:37:43.791Z,1.9
2023-01-07T01:38:53.487Z,2.4
2023-01-07T01:40:02.215Z,1.8
2023-01-07T01:41:10.903Z,2
2023-01-07T01:42:19.700Z,1.7
2023-01-07T01:43:29.985Z,1.8
2023-01-07T01:44:39.792Z,1.9
2023-01-07T01:45:49.341Z,1.6
2023-01-07T01:46:58.066Z,1.8
2023-01-07T01:48:07.685Z,1.6
2023-01-07T01:49:16.352Z,1.7
2023-01-07T01:50:25.043Z,1.7
2023-01-07T01:51:32.734Z,1.8
2023-01-07T01:52:42.510Z,1.8
2023-01-07T01:53:53.297Z,2.3
2023-01-07T01:55:02.975Z,2.1
2023-01-07T01:56:11.633Z,1.6
2023-01-07T01:57:21.369Z,1.6
2023-01-07T01:58:31.024Z,1.8
2023-01-07T01:59:39.721Z,1.9
2023-01-07T02:00:49.657Z,1.8
2023-01-07T02:01:59.241Z,2.2
2023-01-07T02:03:08.770Z,1.5
2023-01-07T02:04:17.485Z,1.7
2023-01-07T02:05:25.151Z,1.7
2023-01-07T02:06:34.796Z,1.5
2023-01-07T02:07:44.492Z,1.7
2023-01-07T02:08:53.184Z,1.2
2023-01-07T02:10:01.864Z,1.7
2023-01-07T02:11:09.529Z,1.8
2023-01-07T02:12:19.207Z,1.7
2023-01-07T02:13:27.870Z,1.5
2023-01-07T02:14:35.537Z,2.3
2023-01-07T02:15:45.232Z,1.5
2023-01-07T02:16:54.017Z,1.5
2023-01-07T02:18:03.601Z,1.7
2023-01-07T02:19:12.253Z,1.7
2023-01-07T02:20:29.002Z,1.9
2023-01-07T02:21:37.647Z,1.8
2023-01-07T02:22:47.322Z,1.7
2023-01-07T02:23:55.990Z,1.3
2023-01-07T02:25:04.652Z,1.9
2023-01-07T02:26:13.323Z,1.3
2023-01-07T02:27:23.102Z,1.8
2023-01-07T02:28:32.751Z,2.2
2023-01-07T02:29:40.407Z,1.6
2023-01-07T02:30:50.068Z,1.5
2023-01-07T02:31:58.926Z,2.8
2023-01-07T02:33:07.427Z,1.2
2023-01-07T02:34:17.095Z,1.2
2023-01-07T02:35:25.798Z,1.4
2023-01-07T02:36:34.468Z,1.6
2023-01-07T02:37:44.166Z,2.4
2023-01-07T02:38:53.844Z,1.5
2023-01-07T02:40:03.544Z,3
2023-01-07T02:41:12.207Z,2
2023-01-07T02:42:20.856Z,1.2
2023-01-07T02:43:30.577Z,1.4
2023-01-07T02:44:40.242Z,1.3
2023-01-07T02:45:48.972Z,1.7
2023-01-07T02:46:58.568Z,1.3
2023-01-07T02:48:06.378Z,1.6
2023-01-07T02:49:15.922Z,1.4
2023-01-07T02:50:25.611Z,1.9
2023-01-07T02:51:34.277Z,1.1
2023-01-07T02:52:43.999Z,1.7
2023-01-07T02:53:53.660Z,2
2023-01-07T02:55:02.349Z,1.9
2023-01-07T02:56:12.000Z,1.9
2023-01-07T02:57:20.684Z,1.7
2023-01-07T02:58:30.340Z,2.1
2023-01-07T02:59:38.989Z,1.7
2023-01-07T03:00:48.694Z,1.4
2023-01-07T03:01:58.440Z,1.6
2023-01-07T03:03:07.068Z,3
2023-01-07T03:04:15.910Z,1.7
2023-01-07T03:05:25.421Z,1
2023-01-07T03:06:33.122Z,2.7
2023-01-07T03:07:42.771Z,1.1
2023-01-07T03:08:51.416Z,1.2
2023-01-07T03:10:00.115Z,1.2
2023-01-07T03:11:09.761Z,1.4
2023-01-07T03:12:18.431Z,1.3
2023-01-07T03:13:26.103Z,1.4
2023-01-07T03:14:35.756Z,1.6
2023-01-07T03:15:44.452Z,1.7
2023-01-07T03:16:54.124Z,1.4
2023-01-07T03:18:02.770Z,2.4
2023-01-07T03:19:10.422Z,1.4
2023-01-07T03:20:20.300Z,1.4
2023-01-07T03:21:28.834Z,1.6
2023-01-07T03:22:37.493Z,1.7
2023-01-07T03:23:46.183Z,1.6
2023-01-07T03:24:53.860Z,1.6
2023-01-07T03:26:03.601Z,1.6
2023-01-07T03:27:12.257Z,1.7
2023-01-07T03:28:20.921Z,1.3
2023-01-07T03:29:30.609Z,2.1
2023-01-07T03:30:40.266Z,2
2023-01-07T03:31:48.940Z,1.5
2023-01-07T03:32:57.594Z,1.6
2023-01-07T03:34:07.263Z,1.8
2023-01-07T03:35:16.977Z,1.7
2023-01-07T03:36:26.771Z,2.1
2023-01-07T03:37:36.336Z,1.8
2023-01-07T03:38:45.998Z,1.8
2023-01-07T03:39:54.658Z,2.2
2023-01-07T03:41:04.341Z,2.3
2023-01-07T03:42:13.025Z,2.7
2023-01-07T03:43:22.700Z,2.7
2023-01-07T03:44:32.376Z,2.9
2023-01-07T03:45:42.092Z,3
2023-01-07T03:46:50.736Z,3
2023-01-07T03:48:00.412Z,3.1
2023-01-07T03:49:10.065Z,3.5
2023-01-07T03:50:18.731Z,3.4
2023-01-07T03:51:27.407Z,3.8
2023-01-07T03:52:36.195Z,3.6
2023-01-07T03:53:45.746Z,3.6
2023-01-07T03:54:55.399Z,3.6
2023-01-07T03:56:05.076Z,4.3
2023-01-07T03:57:14.742Z,3.9
2023-01-07T03:58:23.435Z,3.7
2023-01-07T03:59:31.091Z,4
2023-01-07T04:00:40.773Z,4
2023-01-07T04:01:49.580Z,3.6
2023-01-07T04:02:59.094Z,3.9
2023-01-07T04:04:07.809Z,3.4
2023-01-07T04:05:15.426Z,4.4
2023-01-07T04:06:25.067Z,4.1
2023-01-07T04:07:33.730Z,3.9
2023-01-07T04:08:41.498Z,4.3
2023-01-07T04:09:51.078Z,4.5
2023-01-07T04:10:58.743Z,4.9
2023-01-07T04:12:08.413Z,4.4
2023-01-07T04:13:18.066Z,4.6
2023-01-07T04:14:26.740Z,4.8
2023-01-07T04:15:36.439Z,4.5
2023-01-07T04:16:45.127Z,4.7
2023-01-07T04:17:53.746Z,4.5
2023-01-07T04:19:03.417Z,4.7
2023-01-07T04:20:13.103Z,4.7
2023-01-07T04:21:22.768Z,5.9
2023-01-07T04:22:31.430Z,5.4
2023-01-07T04:23:41.094Z,5
2023-01-07T04:24:50.877Z,4.7
2023-01-07T04:25:59.411Z,4.8
2023-01-07T04:27:09.097Z,5.2
2023-01-07T04:28:17.756Z,5.5
2023-01-07T04:29:26.489Z,5
2023-01-07T04:30:36.165Z,4.8
2023-01-07T04:31:44.788Z,4.9
2023-01-07T04:32:54.474Z,5.2
2023-01-07T04:34:03.140Z,5.7
2023-01-07T04:35:11.807Z,5.5
2023-01-07T04:36:21.570Z,5.2
2023-01-07T04:37:30.219Z,4.7
2023-01-07T04:38:38.912Z,3.4
2023-01-07T04:39:48.581Z,1.9
2023-01-07T04:40:56.370Z,1.3
2023-01-07T04:42:05.917Z,0.9
2023-01-07T04:43:15.606Z,1.6
2023-01-07T04:44:25.271Z,1.8
2023-01-07T04:45:34.935Z,0.9
2023-01-07T04:46:43.615Z,1.4
2023-01-07T04:47:53.303Z,1.5
2023-01-07T04:49:02.964Z,1.1
2023-01-07T04:50:10.687Z,1.2
2023-01-07T04:51:20.366Z,1
2023-01-07T04:52:29.997Z,0.8
2023-01-07T04:53:38.665Z,0.7
2023-01-07T04:54:48.339Z,1.1
2023-01-07T04:55:58.030Z,0.8
2023-01-07T04:57:07.821Z,0.6
2023-01-07T04:58:17.367Z,1.1
2023-01-07T04:59:27.038Z,0.5
2023-01-07T05:00:36.688Z,1.4
2023-01-07T05:01:45.484Z,1
2023-01-07T05:02:52.988Z,1
2023-01-07T05:04:02.758Z,1.2
2023-01-07T05:05:11.304Z,0.6
2023-01-07T05:06:20.969Z,0.5
2023-01-07T05:07:29.645Z,0.6
2023-01-07T05:08:39.302Z,0.5
2023-01-07T05:09:48.964Z,0.9
2023-01-07T05:10:59.624Z,0.7
2023-01-07T05:12:08.300Z,1.3
2023-01-07T05:13:18.081Z,1.7
2023-01-07T05:14:27.613Z,1.3
2023-01-07T05:15:37.258Z,1.4
2023-01-07T05:16:47.020Z,0.9
2023-01-07T05:17:54.572Z,1.3
2023-01-07T05:19:04.257Z,1.9
2023-01-07T05:20:13.927Z,4.3
2023-01-07T05:21:21.588Z,2.6
2023-01-07T05:22:31.252Z,3.1
2023-01-07T05:23:39.916Z,3.4
2023-01-07T05:24:48.578Z,3.2
2023-01-07T05:25:57.237Z,2.7
2023-01-07T05:27:04.885Z,3.8
2023-01-07T05:28:14.543Z,10
2023-01-07T05:29:23.327Z,1.8
2023-01-07T05:30:31.923Z,1.8
2023-01-07T05:31:41.530Z,0.9
2023-01-07T05:32:50.193Z,0.8
2023-01-07T05:33:58.843Z,1.2
2023-01-07T05:35:07.544Z,1.4
2023-01-07T05:36:15.196Z,1.1
2023-01-07T05:37:24.850Z,1.8
2023-01-07T05:38:33.484Z,2.5
2023-01-07T05:39:42.142Z,2.2
2023-01-07T05:40:51.780Z,2.1
2023-01-07T05:42:01.435Z,1.9
2023-01-07T05:43:11.108Z,2
2023-01-07T05:44:19.770Z,2.3
2023-01-07T05:45:28.560Z,2.4
2023-01-07T05:46:38.116Z,2.1
2023-01-07T05:47:47.777Z,1.9
2023-01-07T05:48:56.427Z,2.8
2023-01-07T05:50:06.076Z,1.4
2023-01-07T05:51:14.746Z,1.7
2023-01-07T05:52:23.425Z,2
2023-01-07T05:53:32.119Z,3.5
2023-01-07T05:54:39.762Z,3.7
2023-01-07T05:55:49.426Z,4
2023-01-07T05:56:58.074Z,6.2
2023-01-07T05:58:07.754Z,6.3
2023-01-07T05:59:17.451Z,4.7
2023-01-07T06:00:26.107Z,4.7
2023-01-07T06:01:34.888Z,3.9
2023-01-07T06:02:44.432Z,4
2023-01-07T06:03:53.141Z,3.6
2023-01-07T06:05:02.884Z,3.1
2023-01-07T06:06:10.432Z,2.5
2023-01-07T06:07:19.088Z,2.2
2023-01-07T06:08:28.736Z,2.5
2023-01-07T06:09:38.391Z,2.3
2023-01-07T06:10:47.075Z,2.3
2023-01-07T06:11:56.734Z,2.7
2023-01-07T06:13:06.405Z,2.6
2023-01-07T06:14:16.083Z,2.5
2023-01-07T06:15:24.775Z,3.6
2023-01-07T06:16:32.483Z,3.1
2023-01-07T06:17:42.270Z,3.2
2023-01-07T06:18:50.799Z,2.7
2023-01-07T06:19:59.445Z,1.8
2023-01-07T06:21:08.100Z,2.4
2023-01-07T06:22:16.780Z,2.3
2023-01-07T06:23:25.437Z,1.5
2023-01-07T06:24:34.126Z,3.5
2023-01-07T06:25:44.775Z,1.1
2023-01-07T06:26:53.451Z,1
2023-01-07T06:28:02.113Z,0.6
2023-01-07T06:29:11.803Z,1.3
2023-01-07T06:30:20.473Z,1
2023-01-07T06:31:29.156Z,0.9
2023-01-07T06:32:37.782Z,0.8
2023-01-07T06:33:45.568Z,0.9
2023-01-07T06:34:54.110Z,1
2023-01-07T06:36:02.748Z,1.3
2023-01-07T06:37:11.404Z,1
2023-01-07T06:38:21.105Z,1.1
2023-01-07T06:39:29.800Z,1.3
2023-01-07T06:40:39.474Z,1.4
2023-01-07T06:41:48.169Z,1.4
2023-01-07T06:42:56.798Z,1.1
2023-01-07T06:44:06.463Z,1.3
2023-01-07T06:45:15.148Z,1.5
2023-01-07T06:46:24.996Z,1.1
2023-01-07T06:47:34.504Z,2.3
2023-01-07T06:48:43.174Z,1.6
2023-01-07T06:49:51.984Z,1.5
2023-01-07T06:51:01.610Z,1.4
2023-01-07T06:52:09.330Z,1.3
2023-01-07T06:53:19.009Z,1.3
2023-01-07T06:54:27.664Z,2.4
2023-01-07T06:55:35.320Z,1.3
2023-01-07T06:56:45.095Z,1.7
2023-01-07T06:57:54.748Z,1.2
2023-01-07T06:59:02.418Z,1.3
2023-01-07T07:00:12.219Z,1.6
2023-01-07T07:01:21.999Z,1.5
2023-01-07T07:02:31.725Z,1.4
2023-01-07T07:03:40.225Z,1.9
2023-01-07T07:04:47.886Z,2.5
2023-01-07T07:05:57.671Z,3
2023-01-07T07:07:06.212Z,1.4
2023-01-07T07:08:15.890Z,1.2
2023-01-07T07:09:24.557Z,1.1
2023-01-07T07:10:33.265Z,2.1
2023-01-07T07:11:42.889Z,1.9
2023-01-07T07:12:51.532Z,1.6
2023-01-07T07:14:00.210Z,1.6
2023-01-07T07:15:09.900Z,2
2023-01-07T07:16:18.667Z,1.6
2023-01-07T07:17:27.277Z,2.1
2023-01-07T07:18:36.953Z,1.3
2023-01-07T07:19:45.683Z,2.1
2023-01-07T07:20:55.361Z,1.1
2023-01-07T07:22:05.136Z,2.1
2023-01-07T07:23:13.718Z,1.7
2023-01-07T07:24:23.388Z,1.9
2023-01-07T07:25:32.089Z,1.4
2023-01-07T07:26:40.758Z,1.3
2023-01-07T07:27:50.434Z,2.1
2023-01-07T07:28:59.116Z,1.9
2023-01-07T07:30:08.796Z,1.2
2023-01-07T07:31:18.543Z,1.9
2023-01-07T07:32:27.281Z,1.8
2023-01-07T07:33:36.972Z,2.6
2023-01-07T07:34:45.652Z,1.4
2023-01-07T07:35:55.317Z,1.8
2023-01-07T07:37:04.023Z,1.9
2023-01-07T07:38:11.804Z,3.4
2023-01-07T07:39:21.403Z,2
2023-01-07T07:40:31.077Z,1.6
2023-01-07T07:41:40.770Z,2.1
2023-01-07T07:43:09.848Z,1.3
2023-01-07T07:44:00.131Z,1.6
2023-01-07T07:45:08.816Z,1.3
2023-01-07T07:46:17.550Z,1.7
2023-01-07T07:47:27.156Z,2.1
2023-01-07T07:48:36.864Z,2.2
2023-01-07T07:49:46.637Z,1.7
2023-01-07T07:50:55.314Z,2.7
2023-01-07T07:52:04.115Z,1.7
2023-01-07T07:53:12.794Z,2.5
2023-01-07T07:54:23.950Z,2.1
2023-01-07T07:55:32.189Z,2.1
2023-01-07T07:56:41.866Z,3
2023-01-07T07:57:51.572Z,2.5
2023-01-07T07:59:01.252Z,1.5
2023-01-07T08:00:08.953Z,1.8
2023-01-07T08:01:18.683Z,2.2
2023-01-07T08:02:27.443Z,2.5
2023-01-07T08:03:37.028Z,2
2023-01-07T08:04:45.758Z,1.6
2023-01-07T08:05:55.451Z,3.2
2023-01-07T08:07:05.127Z,2.9
2023-01-07T08:08:13.837Z,3.1
2023-01-07T08:09:23.507Z,4.4
2023-01-07T08:10:34.328Z,4.7
2023-01-07T08:11:43.984Z,6.9
2023-01-07T08:12:53.790Z,5.1
2023-01-07T08:14:03.694Z,3.6
2023-01-07T08:15:12.378Z,6.4
2023-01-07T08:16:22.097Z,3.1
2023-01-07T08:17:30.895Z,1.3
2023-01-07T08:18:38.557Z,1.6
2023-01-07T08:19:48.284Z,1.8
2023-01-07T08:20:56.010Z,1.6
2023-01-07T08:22:05.707Z,2.1
2023-01-07T08:23:15.412Z,3
2023-01-07T08:24:24.075Z,2.1
2023-01-07T08:25:33.745Z,3.4
2023-01-07T08:26:43.684Z,3.1
2023-01-07T08:27:52.152Z,1.4
2023-01-07T08:29:00.846Z,1.5
2023-01-07T08:30:08.526Z,1.3
2023-01-07T08:31:18.272Z,1.4
2023-01-07T08:32:27.905Z,1.1
2023-01-07T08:33:37.781Z,2.8
2023-01-07T08:34:46.265Z,1.1
2023-01-07T08:35:54.977Z,0.8
2023-01-07T08:37:04.663Z,1.4
2023-01-07T08:38:14.341Z,3.2
2023-01-07T08:39:24.038Z,1.6
2023-01-07T08:40:33.732Z,2.5
2023-01-07T08:41:43.404Z,1.5
2023-01-07T08:42:52.219Z,2.1
2023-01-07T08:44:01.765Z,2.4
2023-01-07T08:45:10.471Z,0.8
2023-01-07T08:46:20.342Z,2.2
2023-01-07T08:47:29.985Z,1.9
2023-01-07T08:48:38.654Z,2.3
2023-01-07T08:49:48.427Z,0.7
2023-01-07T08:50:58.124Z,1.3
2023-01-07T08:52:07.835Z,0.8
2023-01-07T08:53:17.580Z,1.3
2023-01-07T08:54:25.251Z,2
2023-01-07T08:55:34.926Z,1.3
2023-01-07T08:56:43.629Z,2.3
2023-01-07T08:57:51.386Z,2.2
2023-01-07T08:59:01.225Z,3.1
2023-01-07T09:00:10.727Z,1.4
2023-01-07T09:01:20.495Z,1.1
2023-01-07T09:02:29.196Z,1.2
2023-01-07T09:03:36.887Z,1.8
2023-01-07T09:04:46.565Z,0.8
2023-01-07T09:05:56.262Z,1.5
2023-01-07T09:07:06.978Z,1.1
2023-01-07T09:08:17.658Z,0.5
2023-01-07T09:09:26.341Z,0.6
2023-01-07T09:10:36.058Z,1.7
2023-01-07T09:11:45.754Z,0.8
2023-01-07T09:12:54.418Z,1
2023-01-07T09:14:04.257Z,1.4
2023-01-07T09:15:13.861Z,1.7
2023-01-07T09:16:21.749Z,1.7
2023-01-07T09:17:31.369Z,1.5
2023-01-07T09:18:40.073Z,1.3
2023-01-07T09:19:49.803Z,1.3
2023-01-07T09:20:58.500Z,1.2
2023-01-07T09:22:06.197Z,1.2
2023-01-07T09:23:15.909Z,1.3
2023-01-07T09:24:25.568Z,1.4
2023-01-07T09:25:34.233Z,0.8
2023-01-07T09:26:44.020Z,2.1
2023-01-07T09:27:53.768Z,1.3
2023-01-07T09:29:02.443Z,1.2
2023-01-07T09:30:11.447Z,1.3
2023-01-07T09:31:19.038Z,1.5
2023-01-07T09:32:28.728Z,0.9
2023-01-07T09:33:38.395Z,1.5
2023-01-07T09:34:47.097Z,0.6
2023-01-07T09:35:56.781Z,0.9
2023-01-07T09:37:06.474Z,0.8
2023-01-07T09:38:15.198Z,0.7
2023-01-07T09:39:24.903Z,1.4
2023-01-07T09:40:33.616Z,0.9
2023-01-07T09:41:43.326Z,0.9
2023-01-07T09:42:53.101Z,1
2023-01-07T09:44:02.841Z,0.9
2023-01-07T09:45:12.543Z,0.8
2023-01-07T09:46:22.318Z,1.7
2023-01-07T09:47:30.893Z,0.5
2023-01-07T09:48:38.566Z,0.7
2023-01-07T09:49:46.256Z,1.3
2023-01-07T09:50:55.933Z,0.8
2023-01-07T09:52:05.640Z,1.3
2023-01-07T09:53:14.308Z,0.5
2023-01-07T09:54:23.975Z,1.5
2023-01-07T09:55:33.682Z,0.9
2023-01-07T09:56:42.362Z,2
2023-01-07T09:57:51.032Z,1
2023-01-07T09:58:58.704Z,2.1
2023-01-07T10:00:08.481Z,0.7
2023-01-07T10:01:18.255Z,1
2023-01-07T10:02:28.111Z,1.1
2023-01-07T10:03:37.758Z,0.6
2023-01-07T10:04:46.415Z,0.7
2023-01-07T10:05:56.088Z,1.3
2023-01-07T10:07:05.787Z,0.8
2023-01-07T10:08:29.589Z,1.4
2023-01-07T10:09:26.138Z,1.4
2023-01-07T10:10:34.776Z,0.6
2023-01-07T10:11:44.184Z,0.5
2023-01-07T10:12:53.245Z,0.6
2023-01-07T10:14:02.906Z,0.8
2023-01-07T10:15:12.573Z,1.1
2023-01-07T10:16:21.253Z,1.2
2023-01-07T10:17:29.901Z,0.8
2023-01-07T10:18:39.748Z,1.4
2023-01-07T10:19:49.302Z,1.2
2023-01-07T10:20:58.955Z,0.5
2023-01-07T10:22:08.657Z,0.7
2023-01-07T10:23:16.307Z,0.6
2023-01-07T10:24:26.028Z,0.6
2023-01-07T10:25:35.721Z,0.8
2023-01-07T10:26:45.379Z,1.6
2023-01-07T10:27:55.108Z,1
2023-01-07T10:29:02.763Z,1.1
2023-01-07T10:30:12.501Z,0.9
2023-01-07T10:31:21.236Z,3
2023-01-07T10:32:29.921Z,1.7
2023-01-07T10:33:38.598Z,1.3
2023-01-07T10:34:47.381Z,0.9
2023-01-07T10:35:57.301Z,1.5
2023-01-07T10:37:06.652Z,2
2023-01-07T10:38:15.304Z,0.7
2023-01-07T10:39:24.983Z,1.3
2023-01-07T10:40:34.695Z,0.5
2023-01-07T10:41:42.375Z,0.6
2023-01-07T10:42:52.146Z,1.1
2023-01-07T10:44:01.835Z,1.4
2023-01-07T10:45:10.501Z,1.2
2023-01-07T10:46:20.235Z,1.7
2023-01-07T10:47:28.887Z,1.2
2023-01-07T10:48:38.568Z,1
2023-01-07T10:49:47.297Z,1.1
2023-01-07T10:50:56.086Z,0.9
2023-01-07T10:52:05.648Z,1.1
2023-01-07T10:53:14.340Z,0.3
2023-01-07T10:54:24.006Z,0.5
2023-01-07T10:55:33.696Z,0.8
2023-01-07T10:56:43.405Z,0.6
2023-01-07T10:57:52.087Z,0.6
2023-01-07T10:59:01.824Z,0.4
2023-01-07T11:00:10.531Z,0.5
2023-01-07T11:01:20.347Z,0.5
2023-01-07T11:02:29.129Z,0.3
2023-01-07T11:03:38.627Z,1.4
2023-01-07T11:04:48.345Z,0.7
2023-01-07T11:05:58.221Z,1
2023-01-07T11:07:07.809Z,0.4
2023-01-07T11:08:17.463Z,0.3
2023-01-07T11:09:27.144Z,0.9
2023-01-07T11:10:36.847Z,0.6
2023-01-07T11:11:46.508Z,0.3
2023-01-07T11:12:55.254Z,0.2
2023-01-07T11:14:04.946Z,1.1
2023-01-07T11:15:13.624Z,0.2
2023-01-07T11:16:23.362Z,0.5
2023-01-07T11:17:32.030Z,0.5
2023-01-07T11:18:41.734Z,0.3
2023-01-07T11:19:51.424Z,0.2
2023-01-07T11:21:00.225Z,1
2023-01-07T11:22:09.806Z,0.7
2023-01-07T11:23:18.538Z,0.4
2023-01-07T11:24:26.194Z,0.4
2023-01-07T11:25:35.896Z,0.8
2023-01-07T11:26:45.572Z,0.5
2023-01-07T11:27:54.271Z,0.6
2023-01-07T11:29:03.971Z,0.8
2023-01-07T11:30:12.659Z,0.4
2023-01-07T11:31:20.523Z,1.1
2023-01-07T11:32:29.176Z,0.7
2023-01-07T11:34:01.233Z,0.6
2023-01-07T11:34:49.573Z,0.6
2023-01-07T11:35:58.372Z,1.3
2023-01-07T11:37:08.179Z,0.5
2023-01-07T11:38:17.743Z,0.8
2023-01-07T11:39:26.448Z,0.4
2023-01-07T11:40:35.146Z,0.3
2023-01-07T11:41:42.776Z,0.6
2023-01-07T11:42:50.472Z,0.7
2023-01-07T11:44:00.142Z,0.7
2023-01-07T11:45:08.835Z,0.3
2023-01-07T11:46:19.011Z,0.6
2023-01-07T11:47:29.165Z,0.6
2023-01-07T11:48:37.845Z,0.5
2023-01-07T11:49:46.518Z,0.9
2023-01-07T11:50:55.221Z,0.3
2023-01-07T11:52:04.897Z,0.6
2023-01-07T11:53:14.710Z,0.3
2023-01-07T11:54:24.245Z,0.7
2023-01-07T11:55:32.915Z,0.6
2023-01-07T11:56:42.593Z,0.9
2023-01-07T11:57:51.261Z,0.3
2023-01-07T11:59:00.932Z,0.3
2023-01-07T12:00:10.666Z,0.5
2023-01-07T12:01:20.364Z,0.7
2023-01-07T12:02:30.090Z,0.8
2023-01-07T12:03:38.688Z,0.9
2023-01-07T12:04:46.329Z,0.4
2023-01-07T12:05:56.010Z,0.4
2023-01-07T12:07:04.735Z,0.4
2023-01-07T12:08:13.460Z,0.3
2023-01-07T12:09:22.277Z,1.1
2023-01-07T12:10:29.898Z,1
2023-01-07T12:11:39.566Z,0.5
2023-01-07T12:12:48.251Z,0.3
2023-01-07T12:13:57.182Z,0.6
2023-01-07T12:15:06.823Z,0.4
2023-01-07T12:16:16.516Z,0.3
2023-01-07T12:17:26.319Z,0.7
2023-01-07T12:18:34.999Z,0.3
2023-01-07T12:19:43.756Z,0.6
2023-01-07T12:20:52.412Z,0.5
2023-01-07T12:22:01.104Z,1
2023-01-07T12:23:10.921Z,0.7
2023-01-07T12:24:20.592Z,1.1
2023-01-07T12:25:30.440Z,1.2
2023-01-07T12:26:41.513Z,0.7
2023-01-07T12:27:51.217Z,0.8
2023-01-07T12:29:00.898Z,0.5
2023-01-07T12:30:10.647Z,0.5
2023-01-07T12:31:19.475Z,1.1
2023-01-07T12:32:29.040Z,0.4
2023-01-07T12:33:38.726Z,0.5
2023-01-07T12:34:46.407Z,0.8
2023-01-07T12:35:55.080Z,0.5
2023-01-07T12:37:03.769Z,0.5
2023-01-07T12:38:12.479Z,1.4
2023-01-07T12:39:22.174Z,3.9
2023-01-07T12:40:29.870Z,0.6
2023-01-07T12:41:39.759Z,1.6
2023-01-07T12:42:49.429Z,0.6
2023-01-07T12:43:59.401Z,0.4
2023-01-07T12:45:09.138Z,0.4
2023-01-07T12:46:18.058Z,0.4
2023-01-07T12:47:30.270Z,0.6
2023-01-07T12:48:38.582Z,1.1
2023-01-07T12:49:47.291Z,0.6
2023-01-07T12:50:56.978Z,0.4
2023-01-07T12:52:05.651Z,0.5
2023-01-07T12:53:15.327Z,0.5
2023-01-07T12:54:25.016Z,0.8
2023-01-07T12:55:33.723Z,0.6
2023-01-07T12:56:43.516Z,1.4
2023-01-07T12:57:53.084Z,1.7
2023-01-07T12:59:01.761Z,0.4
2023-01-07T13:00:11.471Z,1.5
2023-01-07T13:01:20.323Z,0.5
2023-01-07T13:02:28.956Z,0.6
2023-01-07T13:03:38.591Z,0.9
2023-01-07T13:04:47.354Z,1.3
2023-01-07T13:05:55.976Z,0.5
2023-01-07T13:07:05.732Z,0.9
2023-01-07T13:08:13.463Z,0.9
2023-01-07T13:09:23.160Z,1.9
2023-01-07T13:10:32.922Z,0.4
2023-01-07T13:11:42.630Z,0.4
2023-01-07T13:12:52.534Z,0.6
2023-01-07T13:14:02.194Z,0.7
2023-01-07T13:15:10.850Z,0.8
2023-01-07T13:16:19.613Z,0.4
2023-01-07T13:17:28.240Z,0.5
2023-01-07T13:18:37.932Z,1
2023-01-07T13:19:46.609Z,0.7
2023-01-07T13:20:56.162Z,0.6
2023-01-07T13:22:04.858Z,0.3
2023-01-07T13:23:14.553Z,0.7
2023-01-07T13:24:54.353Z,0.7
2023-01-07T13:25:34.886Z,0.5
2023-01-07T13:26:42.565Z,0.4
2023-01-07T13:27:52.279Z,1.1
2023-01-07T13:29:01.262Z,0.4
2023-01-07T13:30:10.854Z,0.5
2023-01-07T13:31:20.725Z,1
2023-01-07T13:32:29.339Z,0.5
2023-01-07T13:33:38.026Z,0.8
2023-01-07T13:34:46.844Z,0.5
2023-01-07T13:35:56.588Z,0.9
2023-01-07T13:37:06.194Z,0.5
2023-01-07T13:38:14.967Z,0.4
2023-01-07T13:39:22.635Z,1.2
2023-01-07T13:40:32.354Z,1.7
2023-01-07T13:41:41.504Z,0.6
2023-01-07T13:42:50.122Z,0.6
2023-01-07T13:43:58.865Z,0.9
2023-01-07T13:45:06.616Z,0.6
2023-01-07T13:46:16.336Z,0.5
2023-01-07T13:47:23.877Z,0.5
2023-01-07T13:48:32.702Z,0.6
2023-01-07T13:49:56.603Z,0.4
2023-01-07T13:50:53.297Z,0.8
2023-01-07T13:52:02.998Z,0.5
2023-01-07T13:53:12.662Z,0.7
2023-01-07T13:54:20.340Z,0.7
2023-01-07T13:55:30.081Z,0.9
2023-01-07T13:56:38.772Z,0.8
2023-01-07T13:57:48.490Z,1
2023-01-07T13:58:58.568Z,0.4
2023-01-07T14:00:07.250Z,0.8
2023-01-07T14:01:17.418Z,0.8
2023-01-07T14:02:26.994Z,0.7
2023-01-07T14:03:37.267Z,1.2
2023-01-07T14:04:46.960Z,0.8
2023-01-07T14:05:55.955Z,1
2023-01-07T14:07:04.413Z,0.7
2023-01-07T14:08:14.307Z,0.8
2023-01-07T14:09:24.110Z,0.2
2023-01-07T14:10:33.787Z,1.1
2023-01-07T14:11:42.483Z,0.9
2023-01-07T14:12:52.295Z,0.5
2023-01-07T14:14:01.987Z,0.7
2023-01-07T14:15:09.709Z,0.6
2023-01-07T14:16:19.424Z,0.7
2023-01-07T14:17:28.098Z,0.7
2023-01-07T14:18:36.760Z,0.5
2023-01-07T14:19:46.420Z,0.4
2023-01-07T14:20:55.170Z,1.8
2023-01-07T14:22:03.915Z,0.8
2023-01-07T14:23:13.591Z,1.2
2023-01-07T14:24:23.278Z,0.8
2023-01-07T14:25:32.972Z,1
2023-01-07T14:26:42.659Z,0.8
2023-01-07T14:27:52.383Z,2
2023-01-07T14:29:02.067Z,1.4
2023-01-07T14:30:16.542Z,0.9
2023-01-07T14:31:21.482Z,0.7
2023-01-07T14:32:30.180Z,0.7
2023-01-07T14:33:38.197Z,1.6
2023-01-07T14:34:47.752Z,0.9
2023-01-07T14:35:57.580Z,0.9
2023-01-07T14:37:06.465Z,0.7
2023-01-07T14:38:16.149Z,0.9
2023-01-07T14:39:24.937Z,0.7
2023-01-07T14:40:33.641Z,1.7
2023-01-07T14:41:43.319Z,0.6
2023-01-07T14:42:53.004Z,0.5
2023-01-07T14:44:02.747Z,0.6
2023-01-07T14:45:12.402Z,0.9
2023-01-07T14:46:21.115Z,0.4
2023-01-07T14:47:30.728Z,0.7
2023-01-07T14:48:39.399Z,0.7
2023-01-07T14:49:49.212Z,0.9
2023-01-07T14:50:58.767Z,0.7
2023-01-07T14:52:07.476Z,0.8
2023-01-07T14:53:17.171Z,0.6
2023-01-07T14:54:25.824Z,1
2023-01-07T14:55:34.585Z,0.4
2023-01-07T14:56:44.371Z,0.4
2023-01-07T14:57:54.045Z,0.3
2023-01-07T14:59:02.751Z,0.9
2023-01-07T15:00:12.459Z,1.2
2023-01-07T15:01:22.346Z,1.3
2023-01-07T15:02:31.987Z,0.5
2023-01-07T15:03:40.527Z,0.4
2023-01-07T15:04:49.198Z,1.1
2023-01-07T15:05:59.017Z,0.7
2023-01-07T15:07:07.569Z,0.8
2023-01-07T15:08:16.238Z,1.3
2023-01-07T15:09:25.935Z,1.5
2023-01-07T15:10:34.620Z,2
2023-01-07T15:11:44.286Z,1
2023-01-07T15:12:52.993Z,1.5
2023-01-07T15:14:02.722Z,1
2023-01-07T15:15:12.436Z,1.1
2023-01-07T15:16:21.210Z,1
2023-01-07T15:17:29.784Z,2.6
2023-01-07T15:18:39.522Z,1.2
2023-01-07T15:19:48.181Z,1.2
2023-01-07T15:20:57.857Z,0.9
2023-01-07T15:22:08.154Z,2.7
2023-01-07T15:23:15.191Z,1.6
2023-01-07T15:24:24.911Z,1
2023-01-07T15:25:34.653Z,0.8
2023-01-07T15:26:44.331Z,2.6
2023-01-07T15:27:54.004Z,1.6
2023-01-07T15:29:01.671Z,1.8
2023-01-07T15:30:11.387Z,2.4
2023-01-07T15:31:21.091Z,2
2023-01-07T15:32:28.710Z,2.1
2023-01-07T15:33:38.372Z,1.7
2023-01-07T15:34:47.103Z,2
2023-01-07T15:35:55.802Z,2.7
2023-01-07T15:37:05.474Z,1.2
2023-01-07T15:38:13.244Z,1.1
2023-01-07T15:39:22.838Z,2.1
2023-01-07T15:40:32.613Z,1.2
2023-01-07T15:41:42.365Z,1.4
2023-01-07T15:42:52.131Z,1.3
2023-01-07T15:44:01.873Z,2.3
2023-01-07T15:45:11.638Z,2.3
2023-01-07T15:46:20.404Z,1.1
2023-01-07T15:47:31.162Z,2.1
2023-01-07T15:48:41.025Z,2.4
2023-01-07T15:49:50.750Z,2
2023-01-07T15:50:58.395Z,1.6
2023-01-07T15:52:08.066Z,2.6
2023-01-07T15:53:16.789Z,1.8
2023-01-07T15:54:26.497Z,2.6
2023-01-07T15:55:36.199Z,1.9
2023-01-07T15:56:44.852Z,1.7
2023-01-07T15:57:54.597Z,3.8